sensor_id;sensor_type;location;lat;lon;timestamp;pressure;altitude;pressure_sealevel;temperature;humidity
78210;BME280;67485;48.816;9.930;2023-12-20T00:02:18;96844.13;;;4.14;89.13
78210;BME280;67485;48.816;9.930;2023-12-20T00:04:44;96841.53;;;4.16;89.16
78210;BME280;67485;48.816;9.930;2023-12-20T00:07:10;96845.84;;;4.15;89.54
78210;BME280;67485;48.816;9.930;2023-12-20T00:09:35;96839.78;;;4.18;88.87
78210;BME280;67485;48.816;9.930;2023-12-20T00:12:01;96838.94;;;4.19;89.65
78210;BME280;67485;48.816;9.930;2023-12-20T00:14:26;96842.41;;;4.16;90.02
78210;BME280;67485;48.816;9.930;2023-12-20T00:16:52;96835.47;;;4.15;91.23
78210;BME280;67485;48.816;9.930;2023-12-20T00:19:18;96835.47;;;4.15;91.27
78210;BME280;67485;48.816;9.930;2023-12-20T00:21:43;96831.16;;;4.16;92.44
78210;BME280;67485;48.816;9.930;2023-12-20T00:24:09;96822.53;;;4.14;93.08
78210;BME280;67485;48.816;9.930;2023-12-20T00:26:35;96806.94;;;4.20;93.80
78210;BME280;67485;48.816;9.930;2023-12-20T00:29:00;96798.28;;;4.24;93.59
78210;BME280;67485;48.816;9.930;2023-12-20T00:31:26;96808.66;;;4.26;94.00
78210;BME280;67485;48.816;9.930;2023-12-20T00:33:51;96810.41;;;4.25;94.04
78210;BME280;67485;48.816;9.930;2023-12-20T00:36:17;96808.66;;;4.27;94.69
78210;BME280;67485;48.816;9.930;2023-12-20T00:38:43;96800.88;;;4.30;94.86
78210;BME280;67485;48.816;9.930;2023-12-20T00:41:09;96805.19;;;4.31;94.27
78210;BME280;67485;48.816;9.930;2023-12-20T00:43:34;96802.59;;;4.33;94.16
78210;BME280;67485;48.816;9.930;2023-12-20T00:46:00;96799.16;;;4.32;94.73
78210;BME280;67485;48.816;9.930;2023-12-20T00:48:26;96801.75;;;4.26;95.11
78210;BME280;67485;48.816;9.930;2023-12-20T00:50:57;96791.38;;;4.23;95.81
78210;BME280;67485;48.816;9.930;2023-12-20T00:53:22;96793.13;;;4.21;95.93
78210;BME280;67485;48.816;9.930;2023-12-20T00:55:48;96787.94;;;4.21;95.96
78210;BME280;67485;48.816;9.930;2023-12-20T00:58:15;96794.00;;;4.18;96.36
78210;BME280;67485;48.816;9.930;2023-12-20T01:00:41;96788.78;;;4.20;96.75
78210;BME280;67485;48.816;9.930;2023-12-20T01:03:09;96783.59;;;4.21;96.90
78210;BME280;67485;48.816;9.930;2023-12-20T01:05:35;96784.47;;;4.19;98.06
78210;BME280;67485;48.816;9.930;2023-12-20T01:08:01;96789.66;;;4.16;98.86
78210;BME280;67485;48.816;9.930;2023-12-20T01:10:28;96789.66;;;4.13;99.76
78210;BME280;67485;48.816;9.930;2023-12-20T01:12:55;96789.66;;;4.13;100.00
78210;BME280;67485;48.816;9.930;2023-12-20T01:15:20;96792.25;;;4.14;100.00
78210;BME280;67485;48.816;9.930;2023-12-20T01:17:46;96797.44;;;4.11;100.00
78210;BME280;67485;48.816;9.930;2023-12-20T01:20:13;96794.88;;;4.10;100.00
78210;BME280;67485;48.816;9.930;2023-12-20T01:22:38;96794.84;;;4.13;100.00
78210;BME280;67485;48.816;9.930;2023-12-20T01:25:04;96787.94;;;4.15;100.00
78210;BME280;67485;48.816;9.930;2023-12-20T01:27:30;96788.78;;;4.15;100.00
78210;BME280;67485;48.816;9.930;2023-12-20T01:29:57;96794.84;;;4.22;100.00
78210;BME280;67485;48.816;9.930;2023-12-20T01:32:22;96789.66;;;4.28;100.00
78210;BME280;67485;48.816;9.930;2023-12-20T01:34:48;96796.56;;;4.23;100.00
78210;BME280;67485;48.816;9.930;2023-12-20T01:37:14;96788.75;;;4.29;100.00
78210;BME280;67485;48.816;9.930;2023-12-20T01:39:39;96787.91;;;4.30;100.00
78210;BME280;67485;48.816;9.930;2023-12-20T01:42:05;96798.25;;;4.36;100.00
78210;BME280;67485;48.816;9.930;2023-12-20T01:44:31;96803.44;;;4.36;100.00
78210;BME280;67485;48.816;9.930;2023-12-20T01:46:56;96806.91;;;4.35;100.00
78210;BME280;67485;48.816;9.930;2023-12-20T01:49:23;96812.13;;;4.32;100.00
78210;BME280;67485;48.816;9.930;2023-12-20T01:51:50;96812.09;;;4.35;100.00
78210;BME280;67485;48.816;9.930;2023-12-20T01:54:15;96807.78;;;4.31;100.00
78210;BME280;67485;48.816;9.930;2023-12-20T01:56:42;96813.84;;;4.24;100.00
78210;BME280;67485;48.816;9.930;2023-12-20T01:59:08;96813.00;;;4.24;100.00
78210;BME280;67485;48.816;9.930;2023-12-20T02:01:35;96813.88;;;4.21;100.00
78210;BME280;67485;48.816;9.930;2023-12-20T02:04:01;96807.81;;;4.16;100.00
78210;BME280;67485;48.816;9.930;2023-12-20T02:06:30;96806.94;;;4.17;100.00
78210;BME280;67485;48.816;9.930;2023-12-20T02:08:59;96805.22;;;4.22;100.00
78210;BME280;67485;48.816;9.930;2023-12-20T02:11:26;96795.69;;;4.26;100.00
78210;BME280;67485;48.816;9.930;2023-12-20T02:13:52;96812.13;;;4.23;100.00
78210;BME280;67485;48.816;9.930;2023-12-20T02:16:18;96811.25;;;4.27;100.00
78210;BME280;67485;48.816;9.930;2023-12-20T02:18:44;96806.91;;;4.29;100.00
78210;BME280;67485;48.816;9.930;2023-12-20T02:21:10;96800.88;;;4.29;100.00
78210;BME280;67485;48.816;9.930;2023-12-20T02:23:36;96788.75;;;4.34;100.00
78210;BME280;67485;48.816;9.930;2023-12-20T02:26:03;96777.53;;;4.27;100.00
78210;BME280;67485;48.816;9.930;2023-12-20T02:28:30;96791.34;;;4.29;100.00
78210;BME280;67485;48.816;9.930;2023-12-20T02:30:57;96788.78;;;4.28;100.00
78210;BME280;67485;48.816;9.930;2023-12-20T02:33:23;96787.91;;;4.27;100.00
78210;BME280;67485;48.816;9.930;2023-12-20T02:35:48;96784.47;;;4.28;100.00
78210;BME280;67485;48.816;9.930;2023-12-20T02:38:14;96786.16;;;4.29;100.00
78210;BME280;67485;48.816;9.930;2023-12-20T02:40:40;96787.91;;;4.27;100.00
78210;BME280;67485;48.816;9.930;2023-12-20T02:43:06;96792.25;;;4.25;100.00
78210;BME280;67485;48.816;9.930;2023-12-20T02:45:32;96788.78;;;4.23;100.00
78210;BME280;67485;48.816;9.930;2023-12-20T02:47:57;96789.63;;;4.25;100.00
78210;BME280;67485;48.816;9.930;2023-12-20T02:50:23;96788.78;;;4.26;100.00
78210;BME280;67485;48.816;9.930;2023-12-20T02:52:49;96791.38;;;4.20;100.00
78210;BME280;67485;48.816;9.930;2023-12-20T02:55:15;96798.31;;;4.21;100.00
78210;BME280;67485;48.816;9.930;2023-12-20T02:57:41;96797.44;;;4.19;100.00
78210;BME280;67485;48.816;9.930;2023-12-20T03:00:10;96793.13;;;4.19;100.00
78210;BME280;67485;48.816;9.930;2023-12-20T03:02:36;96796.56;;;4.17;100.00
78210;BME280;67485;48.816;9.930;2023-12-20T03:05:02;96790.53;;;4.09;100.00
78210;BME280;67485;48.816;9.930;2023-12-20T03:07:28;96784.47;;;4.13;100.00
78210;BME280;67485;48.816;9.930;2023-12-20T03:09:54;96784.47;;;4.16;100.00
78210;BME280;67485;48.816;9.930;2023-12-20T03:12:20;96781.00;;;4.15;100.00
78210;BME280;67485;48.816;9.930;2023-12-20T03:14:46;96787.06;;;4.13;100.00
78210;BME280;67485;48.816;9.930;2023-12-20T03:17:11;96784.50;;;4.10;100.00
78210;BME280;67485;48.816;9.930;2023-12-20T03:19:37;96795.72;;;4.13;100.00
78210;BME280;67485;48.816;9.930;2023-12-20T03:22:03;96794.84;;;4.13;100.00
78210;BME280;67485;48.816;9.930;2023-12-20T03:24:28;96796.59;;;4.11;100.00
78210;BME280;67485;48.816;9.930;2023-12-20T03:26:54;96790.53;;;4.04;100.00
78210;BME280;67485;48.816;9.930;2023-12-20T03:29:20;96792.25;;;4.08;100.00
78210;BME280;67485;48.816;9.930;2023-12-20T03:31:46;96796.56;;;4.09;100.00
78210;BME280;67485;48.816;9.930;2023-12-20T03:34:11;96806.97;;;4.11;100.00
78210;BME280;67485;48.816;9.930;2023-12-20T03:36:37;96806.97;;;4.04;100.00
78210;BME280;67485;48.816;9.930;2023-12-20T03:39:03;96800.03;;;4.06;100.00
78210;BME280;67485;48.816;9.930;2023-12-20T03:41:29;96805.22;;;4.08;100.00
78210;BME280;67485;48.816;9.930;2023-12-20T03:43:54;96803.50;;;4.15;100.00
78210;BME280;67485;48.816;9.930;2023-12-20T03:46:20;96800.91;;;4.09;100.00
78210;BME280;67485;48.816;9.930;2023-12-20T03:48:46;96802.63;;;4.06;100.00
78210;BME280;67485;48.816;9.930;2023-12-20T03:51:13;96808.69;;;4.02;100.00
78210;BME280;67485;48.816;9.930;2023-12-20T03:53:39;96819.91;;;4.03;100.00
78210;BME280;67485;48.816;9.930;2023-12-20T03:56:06;96800.91;;;4.05;100.00
78210;BME280;67485;48.816;9.930;2023-12-20T03:58:32;96801.81;;;3.98;100.00
78210;BME280;67485;48.816;9.930;2023-12-20T04:00:57;96814.75;;;3.98;100.00
78210;BME280;67485;48.816;9.930;2023-12-20T04:03:23;96813.88;;;3.96;100.00
78210;BME280;67485;48.816;9.930;2023-12-20T04:05:49;96813.88;;;3.99;100.00
78210;BME280;67485;48.816;9.930;2023-12-20T04:08:14;96820.81;;;3.97;100.00
78210;BME280;67485;48.816;9.930;2023-12-20T04:10:40;96817.34;;;3.95;100.00
78210;BME280;67485;48.816;9.930;2023-12-20T04:13:06;96826.00;;;3.91;100.00
78210;BME280;67485;48.816;9.930;2023-12-20T04:15:32;96838.97;;;3.91;100.00
78210;BME280;67485;48.816;9.930;2023-12-20T04:17:58;96826.84;;;3.95;100.00
78210;BME280;67485;48.816;9.930;2023-12-20T04:20:23;96833.78;;;3.91;100.00
78210;BME280;67485;48.816;9.930;2023-12-20T04:22:49;96839.81;;;3.84;100.00
78210;BME280;67485;48.816;9.930;2023-12-20T04:25:15;96831.19;;;3.85;100.00
78210;BME280;67485;48.816;9.930;2023-12-20T04:27:41;96830.31;;;3.81;100.00
78210;BME280;67485;48.816;9.930;2023-12-20T04:30:07;96841.56;;;3.76;100.00
78210;BME280;67485;48.816;9.930;2023-12-20T04:32:33;96845.00;;;3.75;100.00
78210;BME280;67485;48.816;9.930;2023-12-20T04:34:58;96847.59;;;3.75;100.00
78210;BME280;67485;48.816;9.930;2023-12-20T04:37:24;96846.75;;;3.76;100.00
78210;BME280;67485;48.816;9.930;2023-12-20T04:39:50;96838.97;;;3.76;100.00
78210;BME280;67485;48.816;9.930;2023-12-20T04:42:16;96837.22;;;3.78;100.00
78210;BME280;67485;48.816;9.930;2023-12-20T04:44:42;96831.19;;;3.76;100.00
78210;BME280;67485;48.816;9.930;2023-12-20T04:47:09;96837.22;;;3.79;100.00
78210;BME280;67485;48.816;9.930;2023-12-20T04:49:35;96845.00;;;3.81;100.00
78210;BME280;67485;48.816;9.930;2023-12-20T04:52:00;96853.63;;;3.83;100.00
78210;BME280;67485;48.816;9.930;2023-12-20T04:54:26;96851.06;;;3.78;100.00
78210;BME280;67485;48.816;9.930;2023-12-20T04:56:52;96857.97;;;3.76;100.00
78210;BME280;67485;48.816;9.930;2023-12-20T04:59:17;96857.09;;;3.72;100.00
78210;BME280;67485;48.816;9.930;2023-12-20T05:01:43;96861.41;;;3.70;100.00
78210;BME280;67485;48.816;9.930;2023-12-20T05:04:09;96855.38;;;3.68;100.00
78210;BME280;67485;48.816;9.930;2023-12-20T05:06:35;96857.09;;;3.72;100.00
78210;BME280;67485;48.816;9.930;2023-12-20T05:09:00;96870.06;;;3.71;100.00
78210;BME280;67485;48.816;9.930;2023-12-20T05:11:26;96874.38;;;3.67;100.00
78210;BME280;67485;48.816;9.930;2023-12-20T05:13:52;96876.09;;;3.68;100.00
78210;BME280;67485;48.816;9.930;2023-12-20T05:16:17;96873.50;;;3.65;100.00
78210;BME280;67485;48.816;9.930;2023-12-20T05:18:44;96875.25;;;3.71;100.00
78210;BME280;67485;48.816;9.930;2023-12-20T05:21:10;96871.78;;;3.72;100.00
78210;BME280;67485;48.816;9.930;2023-12-20T05:23:36;96873.50;;;3.67;100.00
78210;BME280;67485;48.816;9.930;2023-12-20T05:26:02;96879.53;;;3.70;100.00
78210;BME280;67485;48.816;9.930;2023-12-20T05:28:28;96873.50;;;3.71;100.00
78210;BME280;67485;48.816;9.930;2023-12-20T05:30:54;96894.25;;;3.70;100.00
78210;BME280;67485;48.816;9.930;2023-12-20T05:33:19;96887.31;;;3.70;100.00
78210;BME280;67485;48.816;9.930;2023-12-20T05:35:45;96884.72;;;3.77;100.00
78210;BME280;67485;48.816;9.930;2023-12-20T05:38:11;96881.28;;;3.75;100.00
78210;BME280;67485;48.816;9.930;2023-12-20T05:40:37;96889.94;;;3.73;100.00
78210;BME280;67485;48.816;9.930;2023-12-20T05:43:03;96903.78;;;3.76;100.00
78210;BME280;67485;48.816;9.930;2023-12-20T05:45:29;96887.34;;;3.75;100.00
78210;BME280;67485;48.816;9.930;2023-12-20T05:47:58;96893.41;;;3.76;100.00
78210;BME280;67485;48.816;9.930;2023-12-20T05:50:24;96898.56;;;3.79;100.00
78210;BME280;67485;48.816;9.930;2023-12-20T05:52:50;96897.69;;;3.77;100.00
78210;BME280;67485;48.816;9.930;2023-12-20T05:55:15;96898.56;;;3.79;100.00
78210;BME280;67485;48.816;9.930;2023-12-20T05:57:42;96902.03;;;3.78;100.00
78210;BME280;67485;48.816;9.930;2023-12-20T06:00:09;96908.94;;;3.79;100.00
78210;BME280;67485;48.816;9.930;2023-12-20T06:02:39;96919.31;;;3.76;100.00
78210;BME280;67485;48.816;9.930;2023-12-20T06:05:05;96927.94;;;3.73;100.00
78210;BME280;67485;48.816;9.930;2023-12-20T06:07:31;96921.03;;;3.75;100.00
78210;BME280;67485;48.816;9.930;2023-12-20T06:09:57;96927.94;;;3.76;100.00
78210;BME280;67485;48.816;9.930;2023-12-20T06:12:23;96925.34;;;3.76;100.00
78210;BME280;67485;48.816;9.930;2023-12-20T06:14:48;96926.22;;;3.77;100.00
78210;BME280;67485;48.816;9.930;2023-12-20T06:17:14;96921.91;;;3.76;100.00
78210;BME280;67485;48.816;9.930;2023-12-20T06:19:40;96945.22;;;3.79;100.00
78210;BME280;67485;48.816;9.930;2023-12-20T06:22:08;96945.22;;;3.79;100.00
78210;BME280;67485;48.816;9.930;2023-12-20T06:24:33;96940.06;;;3.79;100.00
78210;BME280;67485;48.816;9.930;2023-12-20T06:26:59;96940.06;;;3.85;100.00
78210;BME280;67485;48.816;9.930;2023-12-20T06:29:26;96932.28;;;3.80;100.00
78210;BME280;67485;48.816;9.930;2023-12-20T06:31:52;96932.28;;;3.77;100.00
78210;BME280;67485;48.816;9.930;2023-12-20T06:34:18;96934.88;;;3.79;100.00
78210;BME280;67485;48.816;9.930;2023-12-20T06:36:43;96940.06;;;3.76;100.00
78210;BME280;67485;48.816;9.930;2023-12-20T06:39:09;96935.72;;;3.78;100.00
78210;BME280;67485;48.816;9.930;2023-12-20T06:41:38;96940.03;;;3.80;100.00
78210;BME280;67485;48.816;9.930;2023-12-20T06:44:04;96943.53;;;3.81;100.00
78210;BME280;67485;48.816;9.930;2023-12-20T06:46:30;96949.56;;;3.83;100.00
78210;BME280;67485;48.816;9.930;2023-12-20T06:49:25;96950.44;;;3.83;100.00
78210;BME280;67485;48.816;9.930;2023-12-20T06:52:17;96942.66;;;3.85;100.00
78210;BME280;67485;48.816;9.930;2023-12-20T06:55:12;96950.44;;;3.89;100.00
78210;BME280;67485;48.816;9.930;2023-12-20T06:58:00;96960.78;;;3.88;100.00
78210;BME280;67485;48.816;9.930;2023-12-20T07:00:26;96964.25;;;3.90;100.00
78210;BME280;67485;48.816;9.930;2023-12-20T07:02:52;96960.78;;;3.88;100.00
78210;BME280;67485;48.816;9.930;2023-12-20T07:05:17;96961.69;;;3.90;100.00
78210;BME280;67485;48.816;9.930;2023-12-20T07:07:48;96961.69;;;3.93;100.00
78210;BME280;67485;48.816;9.930;2023-12-20T07:10:14;96966.88;;;3.88;100.00
78210;BME280;67485;48.816;9.930;2023-12-20T07:12:39;96973.75;;;3.86;100.00
78210;BME280;67485;48.816;9.930;2023-12-20T07:15:06;96973.75;;;3.88;100.00
78210;BME280;67485;48.816;9.930;2023-12-20T07:17:33;96976.34;;;3.85;100.00
78210;BME280;67485;48.816;9.930;2023-12-20T07:19:59;96982.44;;;3.87;100.00
78210;BME280;67485;48.816;9.930;2023-12-20T07:22:33;96992.75;;;3.85;100.00
78210;BME280;67485;48.816;9.930;2023-12-20T07:24:59;96995.38;;;3.87;100.00
78210;BME280;67485;48.816;9.930;2023-12-20T07:27:26;96992.75;;;3.85;100.00
78210;BME280;67485;48.816;9.930;2023-12-20T07:29:52;96986.72;;;3.88;100.00
78210;BME280;67485;48.816;9.930;2023-12-20T07:32:18;96986.75;;;3.91;100.00
78210;BME280;67485;48.816;9.930;2023-12-20T07:34:43;96993.66;;;3.86;100.00
78210;BME280;67485;48.816;9.930;2023-12-20T07:37:09;97010.06;;;3.85;100.00
78210;BME280;67485;48.816;9.930;2023-12-20T07:39:39;97007.50;;;3.89;100.00
78210;BME280;67485;48.816;9.930;2023-12-20T07:42:06;97004.88;;;3.88;100.00
78210;BME280;67485;48.816;9.930;2023-12-20T07:44:32;97009.22;;;3.92;100.00
78210;BME280;67485;48.816;9.930;2023-12-20T07:46:58;97016.13;;;3.90;100.00
78210;BME280;67485;48.816;9.930;2023-12-20T07:49:24;97011.78;;;3.90;100.00
78210;BME280;67485;48.816;9.930;2023-12-20T07:51:50;97004.03;;;3.95;100.00
78210;BME280;67485;48.816;9.930;2023-12-20T07:54:16;97005.75;;;3.90;100.00
78210;BME280;67485;48.816;9.930;2023-12-20T07:56:42;97006.59;;;3.89;100.00
78210;BME280;67485;48.816;9.930;2023-12-20T07:59:08;97016.13;;;3.90;100.00
78210;BME280;67485;48.816;9.930;2023-12-20T08:01:34;97026.50;;;3.90;100.00
78210;BME280;67485;48.816;9.930;2023-12-20T08:04:00;97018.72;;;3.88;100.00
78210;BME280;67485;48.816;9.930;2023-12-20T08:06:26;97026.50;;;3.90;100.00
78210;BME280;67485;48.816;9.930;2023-12-20T08:08:52;97024.75;;;3.86;100.00
78210;BME280;67485;48.816;9.930;2023-12-20T08:11:17;97018.75;;;3.95;100.00
78210;BME280;67485;48.816;9.930;2023-12-20T08:13:43;97026.53;;;3.93;100.00
78210;BME280;67485;48.816;9.930;2023-12-20T08:16:09;97021.31;;;3.96;100.00
78210;BME280;67485;48.816;9.930;2023-12-20T08:18:35;97036.00;;;3.94;100.00
78210;BME280;67485;48.816;9.930;2023-12-20T08:21:01;97042.91;;;3.97;100.00
78210;BME280;67485;48.816;9.930;2023-12-20T08:23:27;97035.16;;;3.95;100.00
78210;BME280;67485;48.816;9.930;2023-12-20T08:25:54;97038.63;;;3.99;100.00
78210;BME280;67485;48.816;9.930;2023-12-20T08:28:19;97035.16;;;4.01;100.00
78210;BME280;67485;48.816;9.930;2023-12-20T08:30:46;97029.97;;;4.01;100.00
78210;BME280;67485;48.816;9.930;2023-12-20T08:33:12;97038.63;;;4.06;100.00
78210;BME280;67485;48.816;9.930;2023-12-20T08:35:41;97045.56;;;4.04;100.00
78210;BME280;67485;48.816;9.930;2023-12-20T08:38:07;97049.00;;;4.00;100.00
78210;BME280;67485;48.816;9.930;2023-12-20T08:40:33;97050.72;;;3.95;100.00
78210;BME280;67485;48.816;9.930;2023-12-20T08:42:59;97044.66;;;3.93;100.00
78210;BME280;67485;48.816;9.930;2023-12-20T08:45:25;97050.69;;;3.86;100.00
78210;BME280;67485;48.816;9.930;2023-12-20T08:47:52;97055.88;;;3.86;100.00
78210;BME280;67485;48.816;9.930;2023-12-20T08:50:18;97059.31;;;3.86;100.00
78210;BME280;67485;48.816;9.930;2023-12-20T08:52:43;97052.41;;;3.81;100.00
78210;BME280;67485;48.816;9.930;2023-12-20T08:55:14;97061.91;;;3.83;100.00
78210;BME280;67485;48.816;9.930;2023-12-20T08:57:47;97059.31;;;3.85;100.00
78210;BME280;67485;48.816;9.930;2023-12-20T09:00:22;97069.69;;;3.88;100.00
78210;BME280;67485;48.816;9.930;2023-12-20T09:12:12;97074.94;;;3.97;100.00
78210;BME280;67485;48.816;9.930;2023-12-20T09:15:19;97068.88;;;3.94;100.00
78210;BME280;67485;48.816;9.930;2023-12-20T09:18:24;97063.69;;;3.94;100.00
78210;BME280;67485;48.816;9.930;2023-12-20T09:20:57;97063.66;;;3.95;100.00
78210;BME280;67485;48.816;9.930;2023-12-20T09:24:18;97070.63;;;4.04;100.00
78210;BME280;67485;48.816;9.930;2023-12-20T09:27:19;97066.28;;;3.98;100.00
78210;BME280;67485;48.816;9.930;2023-12-20T09:30:49;97068.03;;;4.02;100.00
78210;BME280;67485;48.816;9.930;2023-12-20T09:33:54;97070.69;;;4.19;100.00
78210;BME280;67485;48.816;9.930;2023-12-20T09:37:06;97071.50;;;4.17;100.00
78210;BME280;67485;48.816;9.930;2023-12-20T09:39:50;97067.22;;;4.33;100.00
78210;BME280;67485;48.816;9.930;2023-12-20T09:43:03;97076.75;;;4.32;100.00
78210;BME280;67485;48.816;9.930;2023-12-20T09:45:38;97069.81;;;4.34;100.00
78210;BME280;67485;48.816;9.930;2023-12-20T09:48:37;97078.47;;;4.36;100.00
78210;BME280;67485;48.816;9.930;2023-12-20T09:51:47;97072.47;;;4.56;100.00
78210;BME280;67485;48.816;9.930;2023-12-20T09:55:08;97066.44;;;4.79;100.00
78210;BME280;67485;48.816;9.930;2023-12-20T09:58:37;97070.75;;;4.80;100.00
78210;BME280;67485;48.816;9.930;2023-12-20T10:01:31;97067.25;;;4.47;100.00
78210;BME280;67485;48.816;9.930;2023-12-20T10:04:51;97068.16;;;4.67;100.00
78210;BME280;67485;48.816;9.930;2023-12-20T10:07:30;97078.50;;;4.40;100.00
78210;BME280;67485;48.816;9.930;2023-12-20T10:10:22;97070.69;;;4.35;100.00
78210;BME280;67485;48.816;9.930;2023-12-20T10:13:10;97075.84;;;4.22;100.00
78210;BME280;67485;48.816;9.930;2023-12-20T10:16:02;97070.69;;;4.32;100.00
78210;BME280;67485;48.816;9.930;2023-12-20T10:19:11;97070.69;;;4.27;100.00
78210;BME280;67485;48.816;9.930;2023-12-20T10:22:03;97076.75;;;4.32;100.00
78210;BME280;67485;48.816;9.930;2023-12-20T10:24:43;97070.69;;;4.27;100.00
78210;BME280;67485;48.816;9.930;2023-12-20T10:27:33;97070.69;;;4.22;100.00
78210;BME280;67485;48.816;9.930;2023-12-20T10:30:03;97075.03;;;4.31;99.33
78210;BME280;67485;48.816;9.930;2023-12-20T10:32:35;97065.50;;;4.35;99.75
78210;BME280;67485;48.816;9.930;2023-12-20T10:35:04;97060.34;;;4.40;99.74
78210;BME280;67485;48.816;9.930;2023-12-20T10:37:37;97049.09;;;4.50;97.74
78210;BME280;67485;48.816;9.930;2023-12-20T10:40:06;97061.22;;;4.57;97.69
78210;BME280;67485;48.816;9.930;2023-12-20T10:42:36;97043.84;;;5.43;96.46
78210;BME280;67485;48.816;9.930;2023-12-20T10:45:05;97044.66;;;5.59;93.13
78210;BME280;67485;48.816;9.930;2023-12-20T10:47:32;97042.09;;;5.51;92.70
78210;BME280;67485;48.816;9.930;2023-12-20T10:50:01;97045.63;;;5.28;92.84
78210;BME280;67485;48.816;9.930;2023-12-20T10:52:27;97045.63;;;5.07;93.71
78210;BME280;67485;48.816;9.930;2023-12-20T10:54:55;97049.13;;;4.90;94.26
78210;BME280;67485;48.816;9.930;2023-12-20T10:57:46;97042.19;;;4.83;95.49
78210;BME280;67485;48.816;9.930;2023-12-20T11:00:25;97037.88;;;4.85;95.12
78210;BME280;67485;48.816;9.930;2023-12-20T11:02:52;97039.59;;;4.86;95.42
78210;BME280;67485;48.816;9.930;2023-12-20T11:07:55;97035.25;;;4.86;94.59
78210;BME280;67485;48.816;9.930;2023-12-20T11:10:44;97029.22;;;4.78;94.26
78210;BME280;67485;48.816;9.930;2023-12-20T11:13:22;97018.81;;;4.75;94.88
78210;BME280;67485;48.816;9.930;2023-12-20T11:15:50;97029.19;;;4.58;94.25
78210;BME280;67485;48.816;9.930;2023-12-20T11:18:17;97033.53;;;4.58;95.18
78210;BME280;67485;48.816;9.930;2023-12-20T11:20:44;97033.50;;;4.34;94.38
78210;BME280;67485;48.816;9.930;2023-12-20T11:23:10;97041.28;;;4.27;93.14
78210;BME280;67485;48.816;9.930;2023-12-20T11:25:49;97026.53;;;4.12;92.81
78210;BME280;67485;48.816;9.930;2023-12-20T11:28:21;97032.63;;;4.12;92.40
78210;BME280;67485;48.816;9.930;2023-12-20T11:30:50;97028.25;;;4.06;91.68
78210;BME280;67485;48.816;9.930;2023-12-20T11:33:25;97030.00;;;4.08;90.24
78210;BME280;67485;48.816;9.930;2023-12-20T11:35:51;97025.69;;;4.02;89.96
78210;BME280;67485;48.816;9.930;2023-12-20T11:38:20;97022.22;;;4.00;89.73
78210;BME280;67485;48.816;9.930;2023-12-20T11:40:53;97023.06;;;3.97;89.77
78210;BME280;67485;48.816;9.930;2023-12-20T11:44:49;97021.34;;;4.02;88.90
78210;BME280;67485;48.816;9.930;2023-12-20T11:47:50;97018.75;;;4.05;87.90
78210;BME280;67485;48.816;9.930;2023-12-20T11:50:49;97006.66;;;4.15;88.30
78210;BME280;67485;48.816;9.930;2023-12-20T11:53:53;97001.50;;;4.35;88.56
78210;BME280;67485;48.816;9.930;2023-12-20T11:57:12;97009.31;;;4.38;88.56
78210;BME280;67485;48.816;9.930;2023-12-20T12:00:42;97004.09;;;4.42;87.04
78210;BME280;67485;48.816;9.930;2023-12-20T12:04:08;97011.88;;;4.28;85.60
78210;BME280;67485;48.816;9.930;2023-12-20T12:07:19;97010.16;;;4.25;85.20
78210;BME280;67485;48.816;9.930;2023-12-20T12:10:15;97014.47;;;4.23;85.34
78210;BME280;67485;48.816;9.930;2023-12-20T12:12:44;97000.59;;;4.12;85.27
78210;BME280;67485;48.816;9.930;2023-12-20T12:15:12;97001.44;;;4.01;83.53
78210;BME280;67485;48.816;9.930;2023-12-20T12:17:40;96997.13;;;3.99;84.74
78210;BME280;67485;48.816;9.930;2023-12-20T12:20:33;96998.00;;;3.96;84.79
78210;BME280;67485;48.816;9.930;2023-12-20T12:32:14;97000.53;;;3.78;85.64
78210;BME280;67485;48.816;9.930;2023-12-20T12:36:31;96997.91;;;3.73;85.91
78210;BME280;67485;48.816;9.930;2023-12-20T12:39:46;97002.22;;;3.66;85.94
78210;BME280;67485;48.816;9.930;2023-12-20T12:48:15;97001.31;;;3.55;85.04
78210;BME280;67485;48.816;9.930;2023-12-20T12:51:58;97002.19;;;3.60;86.43
78210;BME280;67485;48.816;9.930;2023-12-20T12:56:07;96983.19;;;3.64;85.37
78210;BME280;67485;48.816;9.930;2023-12-20T13:00:30;96987.56;;;3.76;85.14
78210;BME280;67485;48.816;9.930;2023-12-20T13:04:54;96982.38;;;3.78;84.84
78210;BME280;67485;48.816;9.930;2023-12-20T13:08:50;96989.31;;;3.79;85.14
78210;BME280;67485;48.816;9.930;2023-12-20T13:11:38;96972.88;;;3.83;84.95
78210;BME280;67485;48.816;9.930;2023-12-20T13:14:38;96972.91;;;3.86;84.70
78210;BME280;67485;48.816;9.930;2023-12-20T13:17:06;96973.78;;;3.89;84.79
78210;BME280;67485;48.816;9.930;2023-12-20T13:19:32;96974.66;;;3.96;83.96
78210;BME280;67485;48.816;9.930;2023-12-20T13:21:58;96967.72;;;3.95;83.21
78210;BME280;67485;48.816;9.930;2023-12-20T13:24:24;96974.66;;;3.99;83.84
78210;BME280;67485;48.816;9.930;2023-12-20T13:26:49;96966.88;;;3.96;83.56
78210;BME280;67485;48.816;9.930;2023-12-20T13:29:15;96960.81;;;3.89;83.34
78210;BME280;67485;48.816;9.930;2023-12-20T13:31:42;96956.47;;;3.85;82.83
78210;BME280;67485;48.816;9.930;2023-12-20T13:34:08;96964.28;;;3.87;82.95
78210;BME280;67485;48.816;9.930;2023-12-20T13:36:34;96966.84;;;3.85;82.60
78210;BME280;67485;48.816;9.930;2023-12-20T13:39:02;96967.69;;;3.83;83.52
78210;BME280;67485;48.816;9.930;2023-12-20T13:41:29;96971.16;;;3.76;83.51
78210;BME280;67485;48.816;9.930;2023-12-20T13:43:55;96969.41;;;3.78;83.61
78210;BME280;67485;48.816;9.930;2023-12-20T13:46:21;96988.41;;;3.77;83.94
78210;BME280;67485;48.816;9.930;2023-12-20T13:48:47;96978.94;;;3.76;85.21
78210;BME280;67485;48.816;9.930;2023-12-20T13:51:13;96981.50;;;3.69;83.56
78210;BME280;67485;48.816;9.930;2023-12-20T13:53:38;96987.56;;;3.67;83.99
78210;BME280;67485;48.816;9.930;2023-12-20T13:56:04;96996.16;;;3.64;83.89
78210;BME280;67485;48.816;9.930;2023-12-20T13:58:30;96998.78;;;3.66;84.43
78210;BME280;67485;48.816;9.930;2023-12-20T14:00:56;97003.06;;;3.62;83.84
78210;BME280;67485;48.816;9.930;2023-12-20T14:03:22;97002.19;;;3.60;84.57